Atyrau Airport

Airport
ICAO code: 
UATG
IATA Code: 
GUW
Summary
ICAO Region: 
APAC
Territory: 
Location: 
Atyrau,
Serving: 
Atyrau
Elevation: 
-72 ft
Coordinates: 
Aerial View: 
47° 7' 19.231" N, 51° 49' 23.507" E
Airport BS: 
Bird Strike
Airport CFIT: 
Altimeter Temperature Error Correction
Metar
Observation
UATG 171700Z 19004MPS 5000 BR NSC M08/M09 Q1020 NOSIG RMK QFE767/1023
Station
ATYRAU
Date/Time
2022-01-17 17:00:00
Wind direction
190°
Lowest cloud amount
n/a
Temperature
-8°C
Dew point
-9°C
Humidity
92%
QNH
1020 hPa
Weather condition
n/a

Description

International airport serving Atyrau, Kazakhstan.

Climatology

Cold Semi-arid climate (Köppen climate classification BSk). - Hot, sometimes extremely hot summers and cold, sometimes very cold winters. Some snowfall during the winter. Areas featuring cold semi-arid climates are sometimes subject to major temperature swings during a 24 hour period.

Runways

Designator Length Width Surface Rops
14/32 3000 44 ASP Yes/Yes
Airport map: 
Aerial View: 

SKYbrary Partners:

Safety knowledge contributed by: